Terminal Aerodrome Forecast
Issued by NWS Billings, MT

Home | Current Version | Previous Version | Text Only | Print | Product List | Glossary On
Versions: 1 2 3 4 5 6 7 8 9 10 11 12 13 14 15 16 17
000
FTUS45 KBYZ 210115 AAA
TAFBIL
TAF AMD
KBIL 210115Z 2101/2124 22018G27KT P6SM SCT100 BKN200
     FM210200 24015KT P6SM VCSH FEW080 BKN100
     FM211700 27025G40KT P6SM VCSH BKN050 OVC080=

USA.gov is the U.S. government's official web portal to all federal, state and local government web resources and services.